Time;durP1;ratioP1;P1;durP2;ratioP2;P2;SDS_P1;SDS_P2;PMS_P1;PMS_P2;Temp;Humidity;BMP_temperature;BMP_pressure;BME280_temperature;BME280_humidity;BME280_pressure;Samples;Min_cycle;Max_cycle;Signal;HPM_P1;HPM_P2
2021/09/11 00:00:57;;;;;;;7.68;4.97;;;18.60;93.00;;;;;;4811894;29;20129;-89
2021/09/11 00:03:25;;;;;;;5.10;3.58;;;18.50;93.00;;;;;;4819142;29;20056;-88
2021/09/11 00:05:52;;;;;;;6.80;4.20;;;18.50;93.00;;;;;;4810237;29;20042;-89
2021/09/11 00:08:27;;;;;;;5.30;3.15;;;18.50;93.00;;;;;;4813321;29;20046;-88
2021/09/11 00:10:54;;;;;;;5.38;2.97;;;18.50;93.00;;;;;;4827803;29;20050;-88
2021/09/11 00:13:38;;;;;;;4.68;2.80;;;18.40;93.00;;;;;;4817778;29;20050;-87
2021/09/11 00:16:05;;;;;;;5.25;3.08;;;18.50;93.00;;;;;;4828003;29;20041;-88
2021/09/11 00:22:16;;;;;;;5.55;3.40;;;18.50;93.00;;;;;;4823195;29;20045;-88
2021/09/11 00:24:44;;;;;;;4.15;2.40;;;18.40;93.10;;;;;;4819619;29;20054;-88
2021/09/11 00:27:11;;;;;;;6.65;4.13;;;18.40;93.10;;;;;;4838318;29;20057;-82
2021/09/11 00:29:38;;;;;;;6.93;4.38;;;18.40;93.10;;;;;;4825542;29;20058;-82
2021/09/11 00:32:05;;;;;;;5.97;3.72;;;18.40;93.10;;;;;;4821664;29;20141;-82
2021/09/11 00:34:33;;;;;;;7.72;4.75;;;18.40;93.00;;;;;;4840752;29;20406;-82
2021/09/11 00:37:01;;;;;;;6.10;3.67;;;18.30;93.00;;;;;;4826634;29;20050;-82
2021/09/11 00:39:28;;;;;;;5.90;3.78;;;18.40;93.10;;;;;;4833930;29;20057;-82
2021/09/11 00:41:55;;;;;;;5.82;3.80;;;18.30;93.10;;;;;;4812003;29;20488;-82
2021/09/11 00:44:22;;;;;;;5.97;3.42;;;18.30;93.10;;;;;;4792693;29;20471;-82
2021/09/11 00:46:49;;;;;;;5.43;3.38;;;18.30;93.10;;;;;;4827732;29;20053;-82
2021/09/11 00:49:16;;;;;;;7.47;4.00;;;18.30;93.10;;;;;;4810445;29;20070;-80
2021/09/11 00:51:44;;;;;;;5.72;3.88;;;18.30;93.10;;;;;;4826028;29;20061;-83
2021/09/11 00:54:12;;;;;;;5.50;3.47;;;18.30;93.10;;;;;;4825035;29;20149;-82
2021/09/11 00:56:40;;;;;;;5.45;2.85;;;18.30;93.10;;;;;;4823669;29;20073;-82
2021/09/11 00:59:07;;;;;;;9.10;4.45;;;18.30;93.10;;;;;;4822170;29;20054;-82
2021/09/11 01:01:35;;;;;;;8.13;5.10;;;18.20;93.10;;;;;;4814389;29;20054;-82
2021/09/11 01:04:03;;;;;;;7.05;4.45;;;18.20;93.10;;;;;;4820186;29;20042;-82
2021/09/11 01:06:31;;;;;;;6.45;3.90;;;18.20;93.10;;;;;;4809947;29;20103;-81
2021/09/11 01:08:58;;;;;;;6.40;4.13;;;18.20;93.10;;;;;;4796345;29;20042;-82
2021/09/11 01:11:26;;;;;;;4.72;3.08;;;18.20;93.10;;;;;;4810201;29;20065;-82
2021/09/11 01:13:56;;;;;;;7.40;4.25;;;18.20;93.10;;;;;;4810223;29;20049;-82
2021/09/11 01:16:23;;;;;;;7.47;4.40;;;18.20;93.10;;;;;;4825320;29;20061;-82
2021/09/11 01:18:50;;;;;;;8.63;4.78;;;18.20;93.40;;;;;;4810176;29;20075;-82
2021/09/11 01:21:17;;;;;;;7.40;4.22;;;18.10;93.10;;;;;;4825653;29;20452;-82
2021/09/11 01:23:45;;;;;;;7.20;4.32;;;18.10;93.10;;;;;;4825162;29;20042;-80
2021/09/11 01:26:15;;;;;;;6.90;3.95;;;18.10;93.10;;;;;;4809817;29;20050;-83
2021/09/11 01:28:42;;;;;;;6.80;3.47;;;18.10;93.10;;;;;;4812721;29;20132;-83
2021/09/11 01:31:09;;;;;;;7.32;3.67;;;18.00;93.40;;;;;;4825374;29;20510;-83
2021/09/11 01:33:37;;;;;;;9.88;5.32;;;18.00;93.10;;;;;;4839906;29;20054;-83
2021/09/11 01:36:04;;;;;;;5.65;3.53;;;18.00;93.20;;;;;;4825255;29;20406;-83
2021/09/11 01:38:32;;;;;;;7.55;3.75;;;17.90;93.10;;;;;;4825578;29;20050;-83
2021/09/11 01:40:59;;;;;;;8.85;4.68;;;17.90;93.10;;;;;;4824606;29;20072;-82
2021/09/11 01:43:31;;;;;;;5.90;3.33;;;17.90;93.20;;;;;;4809651;29;20052;-84
2021/09/11 01:45:59;;;;;;;4.35;2.67;;;17.80;93.10;;;;;;4840406;29;20106;-82
2021/09/11 01:48:26;;;;;;;6.70;3.15;;;17.80;93.20;;;;;;4827192;29;20042;-82
2021/09/11 01:50:54;;;;;;;5.60;2.80;;;17.80;93.20;;;;;;4809254;29;20053;-82
2021/09/11 01:53:21;;;;;;;7.05;3.28;;;17.80;93.20;;;;;;4843608;29;20042;-81
2021/09/11 01:55:49;;;;;;;4.22;2.78;;;17.70;93.20;;;;;;4815305;29;20061;-81
2021/09/11 01:58:16;;;;;;;4.50;2.47;;;17.70;93.20;;;;;;4810109;29;20065;-81
2021/09/11 02:00:44;;;;;;;5.13;2.53;;;17.70;93.20;;;;;;4833733;29;20042;-82
2021/09/11 02:03:11;;;;;;;4.47;2.47;;;17.70;93.50;;;;;;4810448;29;20076;-81
2021/09/11 02:05:39;;;;;;;4.30;2.10;;;17.60;93.20;;;;;;4831019;29;20046;-81
2021/09/11 02:08:07;;;;;;;4.38;2.53;;;17.60;93.20;;;;;;4807217;29;20042;-82
2021/09/11 02:10:35;;;;;;;6.85;3.50;;;17.60;93.20;;;;;;4813340;29;20065;-82
2021/09/11 02:13:02;;;;;;;6.55;2.47;;;17.60;93.20;;;;;;4816192;29;20434;-81
2021/09/11 02:15:35;;;;;;;4.22;2.40;;;17.50;93.20;;;;;;4828397;29;20045;-82
2021/09/11 02:18:06;;;;;;;5.68;3.08;;;17.50;93.20;;;;;;4813149;29;20052;-82
2021/09/11 02:20:34;;;;;;;5.13;2.53;;;17.50;93.20;;;;;;4822798;29;20415;-81
2021/09/11 02:23:01;;;;;;;11.43;4.47;;;17.50;93.20;;;;;;4823228;29;20102;-82
2021/09/11 02:25:28;;;;;;;7.43;3.55;;;17.50;93.20;;;;;;4840083;29;20042;-81
2021/09/11 02:27:57;;;;;;;3.75;1.92;;;17.50;93.30;;;;;;4837467;29;20380;-81
2021/09/11 02:30:25;;;;;;;5.95;3.17;;;17.40;93.20;;;;;;4827891;29;20050;-82
2021/09/11 02:32:52;;;;;;;8.45;3.92;;;17.40;93.20;;;;;;4839954;29;20074;-82
2021/09/11 02:35:20;;;;;;;7.57;3.72;;;17.40;93.20;;;;;;4804869;29;20517;-82
2021/09/11 02:37:51;;;;;;;6.72;3.60;;;17.40;93.20;;;;;;4829142;29;20052;-82
2021/09/11 02:40:28;;;;;;;7.82;4.03;;;17.40;93.20;;;;;;4829323;29;20423;-81
2021/09/11 02:43:28;;;;;;;4.78;2.97;;;17.30;93.20;;;;;;4826167;29;20199;-81
2021/09/11 02:45:56;;;;;;;6.22;3.00;;;17.30;93.20;;;;;;4833702;29;20165;-81
2021/09/11 02:48:23;;;;;;;5.65;2.90;;;17.30;93.20;;;;;;4816772;29;20048;-82
2021/09/11 02:50:50;;;;;;;5.32;2.85;;;17.30;93.20;;;;;;4797533;29;20098;-82
2021/09/11 02:53:21;;;;;;;5.25;2.72;;;17.20;93.20;;;;;;4829606;29;20056;-82
2021/09/11 02:55:48;;;;;;;6.22;3.40;;;17.20;93.20;;;;;;4842542;29;20049;-82
2021/09/11 02:58:22;;;;;;;5.53;2.80;;;17.20;93.30;;;;;;4831627;29;20053;-85
2021/09/11 03:00:56;;;;;;;4.97;2.55;;;17.20;93.20;;;;;;4814131;29;20456;-81
2021/09/11 03:03:23;;;;;;;3.75;2.03;;;17.10;93.20;;;;;;4835340;29;20062;-82
2021/09/11 03:05:50;;;;;;;4.05;1.90;;;17.10;93.20;;;;;;4811690;29;20125;-81
2021/09/11 03:08:17;;;;;;;5.43;2.25;;;17.10;93.30;;;;;;4827198;29;20050;-82
2021/09/11 03:10:47;;;;;;;4.50;2.20;;;17.10;93.30;;;;;;4834099;29;20101;-82
2021/09/11 03:13:15;;;;;;;5.03;2.50;;;17.10;93.30;;;;;;4841388;29;20053;-82
2021/09/11 03:15:42;;;;;;;6.72;3.15;;;17.10;93.50;;;;;;4826686;29;20472;-82
2021/09/11 03:18:09;;;;;;;7.22;3.78;;;17.10;93.30;;;;;;4798576;29;20408;-82
2021/09/11 03:20:37;;;;;;;5.20;2.08;;;17.00;93.20;;;;;;4841641;29;20046;-82
2021/09/11 03:23:05;;;;;;;4.80;2.30;;;17.00;93.30;;;;;;4827066;29;20114;-82
2021/09/11 03:25:33;;;;;;;4.47;2.45;;;17.00;93.20;;;;;;4811180;29;20046;-81
2021/09/11 03:28:00;;;;;;;5.80;2.70;;;17.00;93.20;;;;;;4847800;29;20069;-82
2021/09/11 03:30:27;;;;;;;6.13;3.13;;;16.90;93.20;;;;;;4815944;29;20061;-82
2021/09/11 03:32:54;;;;;;;4.03;2.15;;;16.90;93.20;;;;;;4832116;29;20113;-82
2021/09/11 03:35:21;;;;;;;5.70;2.75;;;16.90;93.20;;;;;;4828517;29;20061;-82
2021/09/11 03:37:48;;;;;;;5.70;2.13;;;16.90;93.20;;;;;;4826009;29;20046;-81
2021/09/11 03:40:15;;;;;;;6.40;2.60;;;16.90;93.20;;;;;;4797674;29;20058;-82
2021/09/11 03:42:42;;;;;;;5.90;2.75;;;16.90;93.20;;;;;;4816623;29;20046;-81
2021/09/11 03:45:10;;;;;;;4.47;2.28;;;16.80;93.30;;;;;;4822776;29;20973;-81
2021/09/11 03:47:37;;;;;;;4.78;2.17;;;16.80;93.30;;;;;;4806585;29;20046;-82
2021/09/11 03:50:06;;;;;;;4.53;1.92;;;16.80;93.30;;;;;;4817292;29;20061;-82
2021/09/11 03:52:34;;;;;;;4.80;2.47;;;16.80;93.30;;;;;;4818732;29;20054;-82
2021/09/11 03:55:02;;;;;;;4.68;2.40;;;16.70;93.30;;;;;;4807823;29;20438;-82
2021/09/11 03:57:29;;;;;;;8.93;3.08;;;16.70;93.30;;;;;;4801911;29;20057;-80
2021/09/11 03:59:56;;;;;;;6.35;2.85;;;16.70;93.30;;;;;;4806918;29;20046;-81
2021/09/11 04:02:23;;;;;;;6.68;3.00;;;16.70;93.30;;;;;;4802314;29;20050;-81
2021/09/11 04:04:50;;;;;;;7.30;3.20;;;16.70;93.30;;;;;;4809094;29;20050;-81
2021/09/11 04:07:17;;;;;;;5.07;2.55;;;16.70;93.30;;;;;;4795448;29;20051;-81
2021/09/11 04:09:44;;;;;;;7.55;3.35;;;16.80;93.30;;;;;;4791512;29;20069;-82
2021/09/11 04:12:12;;;;;;;5.40;2.80;;;16.70;93.20;;;;;;4801211;29;20542;-83
2021/09/11 04:14:39;;;;;;;6.07;2.65;;;16.80;93.20;;;;;;4810734;29;20052;-83
2021/09/11 04:17:07;;;;;;;5.78;3.20;;;16.70;93.20;;;;;;4792451;29;20050;-82
2021/09/11 04:19:45;;;;;;;5.75;2.92;;;16.70;93.20;;;;;;4822824;29;20137;-82
2021/09/11 04:22:20;;;;;;;5.97;3.28;;;16.70;93.20;;;;;;4807397;29;20070;-82
2021/09/11 04:24:56;;;;;;;6.30;2.88;;;16.70;93.20;;;;;;4825083;29;20087;-82
2021/09/11 04:27:23;;;;;;;6.03;2.55;;;16.80;93.30;;;;;;4806299;29;20046;-82
2021/09/11 04:29:57;;;;;;;5.13;2.63;;;16.80;93.20;;;;;;4807699;29;20125;-82
2021/09/11 04:32:36;;;;;;;5.18;2.75;;;16.80;93.20;;;;;;4796124;29;20042;-82
2021/09/11 04:35:04;;;;;;;4.68;2.53;;;16.90;93.20;;;;;;4793470;29;20055;-82
2021/09/11 04:38:01;;;;;;;7.03;3.30;;;16.90;93.10;;;;;;4800450;29;20050;-82
2021/09/11 04:40:33;;;;;;;9.82;4.22;;;17.00;93.10;;;;;;4805046;29;20132;-81
2021/09/11 04:43:03;;;;;;;6.88;3.03;;;17.00;93.00;;;;;;4840977;29;20042;-81
2021/09/11 04:45:31;;;;;;;6.40;4.03;;;17.10;93.00;;;;;;4810573;29;20052;-80
2021/09/11 04:47:59;;;;;;;8.02;3.55;;;17.10;92.90;;;;;;4826062;29;20042;-81
2021/09/11 04:50:44;;;;;;;5.85;3.17;;;17.10;92.90;;;;;;4804921;29;20073;-82
2021/09/11 04:54:05;;;;;;;5.53;3.13;;;17.10;92.90;;;;;;4822412;29;20049;-82
2021/09/11 04:57:01;;;;;;;5.70;3.17;;;17.10;93.10;;;;;;4785234;29;20049;-82
2021/09/11 04:59:29;;;;;;;4.35;2.22;;;17.10;92.90;;;;;;4819195;29;20125;-82
2021/09/11 05:02:00;;;;;;;6.18;3.05;;;17.20;92.90;;;;;;4836690;29;20046;-82
2021/09/11 05:04:40;;;;;;;6.45;2.55;;;17.20;92.80;;;;;;4806106;29;20034;-82
2021/09/11 05:07:54;;;;;;;;;;;;;;;;;;;;;
2021/09/11 05:10:36;;;;;;;6.03;2.60;;;17.20;92.80;;;;;;4841477;29;20494;-82
2021/09/11 05:13:05;;;;;;;4.20;2.33;;;17.20;92.90;;;;;;4835465;29;20073;-82
2021/09/11 05:15:32;;;;;;;6.15;2.70;;;17.20;92.80;;;;;;4826159;29;20518;-82
2021/09/11 05:18:02;;;;;;;4.20;2.47;;;17.20;92.80;;;;;;4800380;29;20111;-81
2021/09/11 05:20:30;;;;;;;5.72;2.90;;;17.20;92.80;;;;;;4827870;29;20416;-82
2021/09/11 05:25:57;;;;;;;6.18;2.85;;;17.30;92.80;;;;;;4797691;29;20122;-81
2021/09/11 05:28:39;;;;;;;6.90;2.65;;;17.30;92.70;;;;;;4783345;29;20048;-81
2021/09/11 05:31:39;;;;;;;5.35;2.60;;;17.30;92.70;;;;;;4837568;29;20050;-81
2021/09/11 05:34:06;;;;;;;4.07;2.17;;;17.30;92.70;;;;;;4812188;29;20050;-81
2021/09/11 05:36:34;;;;;;;5.50;3.78;;;17.40;92.70;;;;;;4813329;29;20137;-81
2021/09/11 05:39:03;;;;;;;5.18;3.00;;;17.40;92.70;;;;;;4834748;29;20046;-81
2021/09/11 05:41:33;;;;;;;5.53;2.50;;;17.40;92.60;;;;;;4825561;29;20058;-81
2021/09/11 05:44:04;;;;;;;4.28;2.00;;;17.40;92.60;;;;;;4838170;29;20072;-81
2021/09/11 05:46:31;;;;;;;8.85;4.97;;;17.40;92.60;;;;;;4812769;29;20048;-82
2021/09/11 05:49:01;;;;;;;6.30;3.70;;;17.40;92.60;;;;;;4813807;29;20123;-81
2021/09/11 05:51:34;;;;;;;4.22;2.50;;;17.40;92.50;;;;;;4825691;29;20050;-81
2021/09/11 05:54:04;;;;;;;5.20;2.70;;;17.50;92.50;;;;;;4835148;29;20125;-82
2021/09/11 05:56:31;;;;;;;5.20;2.42;;;17.50;92.50;;;;;;4836119;29;20414;-82
2021/09/11 05:59:13;;;;;;;5.97;3.22;;;17.50;92.50;;;;;;4805847;29;20046;-82
2021/09/11 06:01:40;;;;;;;6.40;2.50;;;17.50;92.50;;;;;;4832922;29;20053;-82
2021/09/11 06:04:08;;;;;;;4.47;2.47;;;17.50;92.50;;;;;;4816685;29;20145;-82
2021/09/11 06:06:36;;;;;;;9.13;4.53;;;17.60;92.50;;;;;;4807424;29;20049;-81
2021/09/11 06:09:05;;;;;;;6.03;3.42;;;17.60;92.40;;;;;;4810404;29;20055;-81
2021/09/11 06:11:33;;;;;;;4.88;3.03;;;17.60;92.40;;;;;;4810530;29;20046;-81
2021/09/11 06:14:02;;;;;;;5.93;2.88;;;17.60;92.30;;;;;;4849636;29;20062;-82
2021/09/11 06:16:29;;;;;;;4.28;2.03;;;17.70;92.30;;;;;;4810747;29;20758;-82
2021/09/11 06:18:58;;;;;;;5.60;2.88;;;17.70;92.30;;;;;;4820909;29;20057;-82
2021/09/11 06:21:25;;;;;;;5.82;2.58;;;17.80;92.60;;;;;;4805439;29;20050;-82
2021/09/11 06:23:52;;;;;;;5.18;2.38;;;17.80;92.20;;;;;;4816264;29;20873;-81
2021/09/11 06:26:19;;;;;;;5.47;2.97;;;17.80;92.20;;;;;;4836653;29;20090;-81
2021/09/11 06:28:46;;;;;;;4.13;2.50;;;17.80;92.20;;;;;;4830536;29;20061;-81
2021/09/11 06:31:20;;;;;;;3.75;2.33;;;17.80;92.20;;;;;;4813466;29;20528;-81
2021/09/11 06:33:47;;;;;;;4.97;2.05;;;17.70;92.20;;;;;;4824593;29;20050;-81
2021/09/11 06:36:14;;;;;;;6.43;2.92;;;17.80;92.20;;;;;;4800652;29;20081;-81
2021/09/11 06:38:42;;;;;;;5.65;1.92;;;17.80;92.20;;;;;;4812241;29;20140;-81
2021/09/11 06:41:09;;;;;;;6.75;2.95;;;17.80;92.20;;;;;;4831068;29;20049;-81
2021/09/11 06:43:36;;;;;;;5.35;2.50;;;17.80;92.20;;;;;;4806551;29;20046;-81
2021/09/11 06:46:02;;;;;;;5.15;2.92;;;17.80;92.20;;;;;;4824385;29;20114;-81
2021/09/11 06:48:29;;;;;;;5.25;2.80;;;17.80;92.10;;;;;;4800723;29;20041;-81
2021/09/11 06:50:56;;;;;;;5.45;2.58;;;17.90;92.10;;;;;;4824676;29;20443;-79
2021/09/11 06:53:24;;;;;;;4.10;2.42;;;17.90;92.10;;;;;;4819473;29;20053;-81
2021/09/11 06:55:54;;;;;;;7.18;3.30;;;17.90;92.00;;;;;;4847998;29;20058;-81
2021/09/11 06:58:21;;;;;;;5.63;3.53;;;17.90;91.90;;;;;;4824916;29;20065;-81
2021/09/11 07:00:51;;;;;;;6.15;3.60;;;17.90;91.90;;;;;;4814411;29;20046;-85
2021/09/11 07:03:18;;;;;;;6.80;4.38;;;18.00;91.90;;;;;;4817601;29;20090;-83
2021/09/11 07:05:45;;;;;;;5.65;3.15;;;18.00;91.90;;;;;;4799410;29;20519;-80
2021/09/11 07:08:12;;;;;;;6.43;4.13;;;18.00;91.90;;;;;;4843137;29;20487;-83
2021/09/11 07:10:42;;;;;;;6.18;4.18;;;18.00;91.90;;;;;;4826918;29;20046;-83
2021/09/11 07:13:09;;;;;;;5.75;2.80;;;18.00;91.80;;;;;;4825539;29;20134;-84
2021/09/11 07:15:36;;;;;;;5.78;2.22;;;18.10;91.80;;;;;;4812051;29;20062;-84
2021/09/11 07:18:03;;;;;;;6.10;3.08;;;18.10;91.80;;;;;;4828439;29;20049;-84
2021/09/11 07:20:31;;;;;;;7.18;3.90;;;18.20;91.80;;;;;;4813960;29;20407;-84
2021/09/11 07:22:58;;;;;;;7.43;3.50;;;18.20;91.70;;;;;;4826751;29;20072;-84
2021/09/11 07:25:26;;;;;;;5.75;2.20;;;18.20;91.70;;;;;;4828762;29;20045;-84
2021/09/11 07:27:53;;;;;;;3.92;1.92;;;18.30;91.70;;;;;;4826774;29;20392;-84
2021/09/11 07:30:20;;;;;;;4.45;1.95;;;18.30;91.70;;;;;;4831125;29;20539;-84
2021/09/11 07:32:57;;;;;;;4.60;2.42;;;18.30;91.60;;;;;;4811297;29;20177;-85
2021/09/11 07:35:27;;;;;;;5.72;3.33;;;18.40;91.90;;;;;;4817551;29;20411;-86
2021/09/11 07:37:55;;;;;;;7.05;3.40;;;18.50;91.60;;;;;;4822913;29;20136;-84
2021/09/11 07:40:22;;;;;;;6.25;3.50;;;18.50;91.50;;;;;;4812157;29;20068;-85
2021/09/11 07:42:49;;;;;;;7.82;3.58;;;18.60;91.40;;;;;;4823900;29;20050;-86
2021/09/11 07:45:17;;;;;;;5.90;3.03;;;18.60;91.30;;;;;;4810314;29;20054;-85
2021/09/11 07:47:44;;;;;;;5.10;2.25;;;18.60;91.30;;;;;;4809064;29;20045;-86
2021/09/11 07:50:12;;;;;;;5.25;2.63;;;18.70;91.40;;;;;;4815737;29;20046;-86
2021/09/11 07:52:39;;;;;;;4.63;2.28;;;18.80;91.30;;;;;;4828602;29;20054;-86
2021/09/11 07:55:07;;;;;;;5.68;3.10;;;18.90;91.20;;;;;;4796286;29;20054;-87
2021/09/11 07:57:35;;;;;;;4.15;2.10;;;19.10;91.10;;;;;;4826441;29;20503;-87
2021/09/11 08:00:04;;;;;;;5.30;3.13;;;19.20;91.00;;;;;;4820692;29;20077;-85
2021/09/11 08:06:21;;;;;;;6.53;3.20;;;19.20;90.90;;;;;;4827923;29;20054;-86
2021/09/11 08:08:49;;;;;;;3.70;2.35;;;19.30;91.00;;;;;;4842424;29;20476;-86
2021/09/11 08:11:17;;;;;;;4.40;3.10;;;19.30;90.90;;;;;;4825679;29;20053;-86
2021/09/11 08:13:47;;;;;;;5.57;3.28;;;19.40;90.90;;;;;;4803213;29;20150;-86
2021/09/11 08:16:14;;;;;;;5.05;3.17;;;19.40;90.80;;;;;;4825999;29;20077;-86
2021/09/11 08:18:41;;;;;;;7.50;3.80;;;19.40;90.80;;;;;;4833965;29;20051;-84
2021/09/11 08:21:08;;;;;;;4.28;3.10;;;19.40;90.80;;;;;;4830856;29;20068;-85
2021/09/11 08:23:35;;;;;;;6.57;3.50;;;19.40;90.80;;;;;;4814849;29;20050;-85
2021/09/11 08:26:04;;;;;;;5.03;3.72;;;19.40;90.80;;;;;;4811219;29;20042;-85
2021/09/11 08:28:31;;;;;;;6.93;5.07;;;19.40;90.80;;;;;;4810723;29;20500;-86
2021/09/11 08:31:05;;;;;;;5.72;3.45;;;19.40;90.70;;;;;;4823706;29;20062;-86
2021/09/11 08:33:33;;;;;;;5.30;3.35;;;19.50;90.70;;;;;;4821851;29;20056;-84
2021/09/11 08:36:00;;;;;;;7.03;4.18;;;19.60;90.70;;;;;;4810735;29;20053;-87
2021/09/11 08:38:27;;;;;;;4.90;3.40;;;19.70;90.50;;;;;;4818606;29;20054;-85
2021/09/11 08:40:55;;;;;;;5.40;3.10;;;19.80;90.50;;;;;;4827139;29;20054;-85
2021/09/11 08:43:22;;;;;;;5.00;3.03;;;19.80;90.40;;;;;;4810522;29;20081;-85
2021/09/11 08:45:49;;;;;;;6.35;3.55;;;19.80;90.40;;;;;;4809933;29;20038;-84
2021/09/11 08:48:16;;;;;;;6.55;4.53;;;19.90;90.40;;;;;;4826593;29;20128;-85
2021/09/11 08:50:43;;;;;;;7.25;4.80;;;19.90;90.30;;;;;;4825262;29;20054;-84
2021/09/11 08:53:13;;;;;;;6.57;3.50;;;19.90;90.40;;;;;;4810607;29;20053;-84
2021/09/11 08:55:40;;;;;;;6.70;4.85;;;19.80;90.30;;;;;;4810403;29;20525;-85
2021/09/11 08:58:08;;;;;;;6.13;4.32;;;19.70;90.30;;;;;;4842358;29;20110;-85
2021/09/11 09:00:56;;;;;;;5.35;3.85;;;19.70;90.40;;;;;;4824769;29;20062;-95
2021/09/11 09:03:26;;;;;;;10.70;7.32;;;19.70;90.40;;;;;;4836453;29;20517;-92
2021/09/11 09:05:54;;;;;;;10.98;7.03;;;19.60;90.30;;;;;;4827470;29;20050;-92
2021/09/11 09:08:32;;;;;;;6.75;5.05;;;19.70;90.30;;;;;;4829769;29;20141;-94
2021/09/11 09:11:21;;;;;;;8.38;5.80;;;19.70;90.30;;;;;;4831898;29;20046;-93
2021/09/11 09:14:02;;;;;;;8.27;5.63;;;19.80;90.10;;;;;;4850406;29;20050;-94
2021/09/11 09:16:44;;;;;;;7.22;4.72;;;19.80;90.20;;;;;;4839589;29;20082;-92
2021/09/11 09:19:20;;;;;;;7.53;4.38;;;19.80;90.20;;;;;;4819501;29;20148;-92
2021/09/11 09:21:52;;;;;;;6.88;4.50;;;19.90;90.10;;;;;;4831485;29;20059;-91
2021/09/11 09:25:03;;;;;;;;;;;;;;;;;;;;;
2021/09/11 09:28:28;;;;;;;5.90;3.63;;;20.10;90.00;;;;;;4840417;29;20061;-88
2021/09/11 09:30:55;;;;;;;6.82;4.30;;;20.10;90.00;;;;;;4835916;29;20046;-92
2021/09/11 09:33:25;;;;;;;5.38;3.88;;;20.10;89.90;;;;;;4819528;29;20118;-90
2021/09/11 09:35:55;;;;;;;5.45;3.67;;;20.10;89.90;;;;;;4831375;29;20056;-89
2021/09/11 09:38:22;;;;;;;6.15;4.18;;;20.10;90.00;;;;;;4811717;29;20126;-87
2021/09/11 09:40:52;;;;;;;6.28;4.38;;;20.10;90.00;;;;;;4827751;29;20133;-88
2021/09/11 09:43:30;;;;;;;8.43;5.05;;;20.00;90.00;;;;;;4820133;29;20521;-88
2021/09/11 09:46:12;;;;;;;9.20;5.95;;;20.00;89.90;;;;;;4822851;29;20047;-88
2021/09/11 09:48:41;;;;;;;7.18;4.50;;;20.10;90.00;;;;;;4810570;29;20074;-87
2021/09/11 09:51:14;;;;;;;6.68;5.38;;;20.00;89.90;;;;;;4811141;29;20472;-89
2021/09/11 09:53:50;;;;;;;6.63;4.97;;;20.10;89.90;;;;;;4822087;29;20050;-87
2021/09/11 09:56:29;;;;;;;6.40;4.97;;;20.10;89.90;;;;;;4831715;29;20407;-91
2021/09/11 09:59:17;;;;;;;6.18;5.05;;;20.10;89.90;;;;;;4813717;29;20059;-91
2021/09/11 10:01:44;;;;;;;8.48;5.05;;;20.10;90.00;;;;;;4798710;29;20059;-89
2021/09/11 10:04:16;;;;;;;7.50;5.43;;;20.20;90.00;;;;;;4798748;29;20038;-85
2021/09/11 10:07:06;;;;;;;8.10;5.57;;;20.20;89.90;;;;;;4824441;29;20072;-88
2021/09/11 10:09:40;;;;;;;7.15;4.90;;;20.30;89.70;;;;;;4810015;29;20111;-86
2021/09/11 10:12:35;;;;;;;11.13;7.05;;;20.30;89.60;;;;;;4824525;29;20145;-87
2021/09/11 10:15:24;;;;;;;10.98;7.13;;;20.20;89.30;;;;;;4805257;29;20042;-87
2021/09/11 10:17:52;;;;;;;9.65;5.50;;;20.10;89.50;;;;;;4813648;29;20102;-85
2021/09/11 10:20:20;;;;;;;7.25;5.25;;;20.10;89.60;;;;;;4824592;29;20054;-86
2021/09/11 10:23:07;;;;;;;7.68;5.47;;;20.20;89.70;;;;;;4834650;29;20060;-86
2021/09/11 10:25:45;;;;;;;8.60;5.07;;;20.40;89.50;;;;;;4810826;29;20554;-86
2021/09/11 10:28:18;;;;;;;10.93;6.35;;;20.50;89.30;;;;;;4843012;29;20513;-86
2021/09/11 10:31:08;;;;;;;10.50;6.55;;;20.50;89.00;;;;;;4826008;29;20133;-87
2021/09/11 10:37:49;;;;;;;7.50;5.15;;;20.50;89.00;;;;;;4826980;29;20486;-85
2021/09/11 10:40:23;;;;;;;7.93;5.63;;;20.40;89.10;;;;;;4820625;29;20070;-85
2021/09/11 10:43:14;;;;;;;7.10;4.72;;;20.40;89.30;;;;;;4793188;29;20568;-83
2021/09/11 10:46:12;;;;;;;10.35;6.22;;;20.40;89.20;;;;;;4821357;29;20042;-86
2021/09/11 10:48:48;;;;;;;6.82;5.00;;;20.40;89.20;;;;;;4832855;29;20498;-83
2021/09/11 10:51:30;;;;;;;9.27;6.63;;;20.40;89.30;;;;;;4827076;29;20053;-86
2021/09/11 10:54:13;;;;;;;10.93;6.10;;;20.40;89.60;;;;;;4818039;29;20050;-87
2021/09/11 10:56:50;;;;;;;9.55;6.60;;;20.40;89.20;;;;;;4791336;29;20061;-84
2021/09/11 10:59:24;;;;;;;8.05;4.90;;;20.40;89.10;;;;;;4820043;29;20418;-85
2021/09/11 11:02:03;;;;;;;5.85;4.35;;;20.30;89.20;;;;;;4813011;29;20057;-85
2021/09/11 11:05:23;;;;;;;7.13;4.90;;;20.30;89.20;;;;;;4808228;29;20039;-83
2021/09/11 11:08:16;;;;;;;9.32;6.78;;;20.50;89.10;;;;;;4798583;29;20054;-83
2021/09/11 11:10:44;;;;;;;11.07;8.52;;;20.50;88.90;;;;;;4813055;29;20054;-88
2021/09/11 11:13:11;;;;;;;9.40;5.90;;;20.50;88.70;;;;;;4816240;29;20046;-90
2021/09/11 11:15:40;;;;;;;10.23;6.07;;;20.60;88.60;;;;;;4808733;29;20050;-88
2021/09/11 11:18:11;;;;;;;9.55;5.90;;;20.70;88.50;;;;;;4808193;29;20081;-87
2021/09/11 11:20:42;;;;;;;9.43;6.05;;;20.80;88.30;;;;;;4824943;29;20039;-93
2021/09/11 11:23:17;;;;;;;10.13;6.95;;;21.00;88.00;;;;;;4816720;29;20111;-87
2021/09/11 11:25:52;;;;;;;9.60;7.38;;;21.20;87.60;;;;;;4806624;29;20046;-84
2021/09/11 11:28:20;;;;;;;13.38;8.82;;;21.40;87.20;;;;;;4821591;29;20099;-82
2021/09/11 11:30:51;;;;;;;11.43;8.55;;;21.40;86.70;;;;;;4793422;29;20423;-85
2021/09/11 11:33:25;;;;;;;11.75;8.60;;;21.50;86.60;;;;;;4806341;29;20047;-84
2021/09/11 11:36:03;;;;;;;11.10;8.43;;;21.60;86.40;;;;;;4787476;29;20065;-87
2021/09/11 11:38:30;;;;;;;9.07;6.60;;;21.70;86.20;;;;;;4813649;29;20051;-84
2021/09/11 11:41:04;;;;;;;11.40;8.63;;;21.70;86.20;;;;;;4810159;29;20046;-83
2021/09/11 11:43:33;;;;;;;11.35;8.40;;;21.90;85.80;;;;;;4823512;29;20128;-84
2021/09/11 11:46:00;;;;;;;12.32;8.80;;;21.90;85.80;;;;;;4824573;29;20091;-84
2021/09/11 11:48:28;;;;;;;10.38;7.82;;;21.90;85.60;;;;;;4828595;29;20065;-81
2021/09/11 11:50:57;;;;;;;11.70;7.03;;;21.90;85.70;;;;;;4833096;29;20037;-82
2021/09/11 11:53:24;;;;;;;12.45;8.82;;;22.00;85.60;;;;;;4796346;29;20490;-82
2021/09/11 11:55:54;;;;;;;10.55;7.45;;;22.00;85.50;;;;;;4830803;29;20050;-82
2021/09/11 11:58:33;;;;;;;11.20;7.88;;;22.10;85.50;;;;;;4806523;29;20126;-81
2021/09/11 12:01:00;;;;;;;9.75;6.82;;;22.10;85.20;;;;;;4825677;29;20073;-83
2021/09/11 12:03:41;;;;;;;9.18;6.60;;;22.30;85.10;;;;;;4829829;29;20045;-82
2021/09/11 12:06:48;;;;;;;9.10;6.40;;;22.50;84.70;;;;;;4826326;29;20088;-79
2021/09/11 12:09:16;;;;;;;7.55;5.60;;;22.50;84.60;;;;;;4811073;29;20057;-83
2021/09/11 12:12:26;;;;;;;7.35;5.65;;;22.50;84.90;;;;;;4817925;29;20413;-87
2021/09/11 12:15:04;;;;;;;10.60;5.57;;;22.60;84.80;;;;;;4829799;29;20056;-90
2021/09/11 12:17:31;;;;;;;9.55;6.82;;;22.50;84.60;;;;;;4821858;29;20050;-80
2021/09/11 12:20:14;;;;;;;8.75;6.20;;;22.30;84.80;;;;;;4826749;29;20038;-82
2021/09/11 12:23:01;;;;;;;;;;;22.10;85.50;;;;;;4830945;29;20380;-84
2021/09/11 12:25:56;;;;;;;7.60;4.97;;;21.90;85.60;;;;;;4837543;29;19924;-82
2021/09/11 12:28:46;;;;;;;8.00;5.20;;;21.60;86.00;;;;;;4837913;29;20057;-81
2021/09/11 12:31:21;;;;;;;8.73;5.72;;;21.40;86.40;;;;;;4824645;29;20057;-80
2021/09/11 12:33:50;;;;;;;6.25;4.63;;;21.00;86.30;;;;;;4821682;29;20122;-78
2021/09/11 12:36:41;;;;;;;5.97;3.38;;;20.60;87.20;;;;;;4829394;29;20118;-83
2021/09/11 12:39:28;;;;;;;4.70;3.13;;;20.10;88.40;;;;;;4841753;29;20053;-81
2021/09/11 12:41:57;;;;;;;3.97;2.50;;;19.80;89.10;;;;;;4835518;29;20050;-81
2021/09/11 12:44:30;;;;;;;;;;;19.60;89.60;;;;;;4810347;29;20049;-82
2021/09/11 12:47:03;;;;;;;3.28;1.73;;;19.50;89.90;;;;;;4825724;29;20305;-80
2021/09/11 12:49:38;;;;;;;3.00;1.73;;;19.50;90.00;;;;;;4809969;29;20045;-81
2021/09/11 12:52:08;;;;;;;2.10;1.20;;;19.50;90.00;;;;;;4826317;29;20494;-82
2021/09/11 12:54:44;;;;;;;2.33;1.27;;;19.60;90.30;;;;;;4824628;29;20077;-81
2021/09/11 12:57:11;;;;;;;2.70;1.70;;;19.70;90.00;;;;;;4836167;29;20049;-82
2021/09/11 12:59:38;;;;;;;2.30;1.20;;;19.80;89.80;;;;;;4830656;29;20050;-81
2021/09/11 13:02:06;;;;;;;2.30;1.35;;;19.90;89.70;;;;;;4814135;29;20057;-82
2021/09/11 13:04:34;;;;;;;2.35;1.35;;;20.10;89.60;;;;;;4809574;29;20046;-83
2021/09/11 13:07:01;;;;;;;3.65;1.90;;;20.30;89.40;;;;;;4814537;29;20495;-83
2021/09/11 13:09:28;;;;;;;3.03;1.52;;;20.50;89.10;;;;;;4794413;29;20046;-79
2021/09/11 13:11:56;;;;;;;2.30;1.25;;;20.70;88.80;;;;;;4840162;29;20181;-81
2021/09/11 13:14:23;;;;;;;3.70;1.20;;;20.90;88.50;;;;;;4809473;29;20046;-80
2021/09/11 13:16:50;;;;;;;1.70;1.02;;;21.00;88.30;;;;;;4840202;29;20091;-82
2021/09/11 13:19:18;;;;;;;2.42;1.50;;;21.10;88.30;;;;;;4824854;29;20050;-80
2021/09/11 13:21:45;;;;;;;3.50;1.95;;;21.10;88.30;;;;;;4821715;29;20047;-79
2021/09/11 13:24:12;;;;;;;4.32;2.65;;;21.10;88.30;;;;;;4795165;29;20079;-82
2021/09/11 13:26:39;;;;;;;3.65;2.50;;;21.10;88.30;;;;;;4824078;29;20034;-81